sensor_id;sensor_type;location;lat;lon;timestamp;pressure;altitude;pressure_sealevel;temperature;humidity
36502;BME280;25393;46.108;3.390;2023-06-10T00:00:47;97398.38;;;18.89;100.00
36502;BME280;25393;46.108;3.390;2023-06-10T00:03:13;97412.59;;;18.89;100.00
36502;BME280;25393;46.108;3.390;2023-06-10T00:05:41;97389.84;;;18.80;100.00
36502;BME280;25393;46.108;3.390;2023-06-10T00:08:07;97394.88;;;18.88;100.00
36502;BME280;25393;46.108;3.390;2023-06-10T00:10:35;97404.66;;;18.94;100.00
36502;BME280;25393;46.108;3.390;2023-06-10T00:13:06;97391.84;;;18.62;100.00
36502;BME280;25393;46.108;3.390;2023-06-10T00:15:37;97401.19;;;18.71;100.00
36502;BME280;25393;46.108;3.390;2023-06-10T00:18:04;97408.78;;;18.62;100.00
36502;BME280;25393;46.108;3.390;2023-06-10T00:20:30;97406.44;;;18.66;100.00
36502;BME280;25393;46.108;3.390;2023-06-10T00:22:58;97399.13;;;18.61;100.00
36502;BME280;25393;46.108;3.390;2023-06-10T00:25:25;97411.22;;;18.75;100.00
36502;BME280;25393;46.108;3.390;2023-06-10T00:27:52;97400.84;;;18.67;100.00
36502;BME280;25393;46.108;3.390;2023-06-10T00:30:19;97409.81;;;18.73;100.00
36502;BME280;25393;46.108;3.390;2023-06-10T00:32:45;97416.13;;;18.78;100.00
36502;BME280;25393;46.108;3.390;2023-06-10T00:35:12;97413.06;;;18.86;100.00
36502;BME280;25393;46.108;3.390;2023-06-10T00:37:39;97427.66;;;18.79;100.00
36502;BME280;25393;46.108;3.390;2023-06-10T00:40:06;97412.03;;;18.76;100.00
36502;BME280;25393;46.108;3.390;2023-06-10T00:42:35;97424.97;;;18.79;100.00
36502;BME280;25393;46.108;3.390;2023-06-10T00:45:02;97408.78;;;18.62;100.00
36502;BME280;25393;46.108;3.390;2023-06-10T00:47:30;97414.97;;;18.63;100.00
36502;BME280;25393;46.108;3.390;2023-06-10T00:49:57;97425.34;;;18.71;100.00
36502;BME280;25393;46.108;3.390;2023-06-10T00:52:27;97416.22;;;18.72;100.00
36502;BME280;25393;46.108;3.390;2023-06-10T00:54:54;97436.66;;;18.84;100.00
36502;BME280;25393;46.108;3.390;2023-06-10T00:57:21;97411.47;;;18.74;100.00
36502;BME280;25393;46.108;3.390;2023-06-10T00:59:48;97426.75;;;18.85;100.00
36502;BME280;25393;46.108;3.390;2023-06-10T01:02:16;97408.31;;;18.77;100.00
36502;BME280;25393;46.108;3.390;2023-06-10T01:04:43;97425.09;;;18.84;100.00
36502;BME280;25393;46.108;3.390;2023-06-10T01:09:53;97422.41;;;18.84;100.00
36502;BME280;25393;46.108;3.390;2023-06-10T01:12:31;97429.50;;;18.90;100.00
36502;BME280;25393;46.108;3.390;2023-06-10T01:15:00;97432.44;;;18.88;100.00
36502;BME280;25393;46.108;3.390;2023-06-10T01:17:28;97421.84;;;18.82;100.00
36502;BME280;25393;46.108;3.390;2023-06-10T01:19:58;97432.69;;;18.87;100.00
36502;BME280;25393;46.108;3.390;2023-06-10T01:22:26;97414.97;;;18.74;100.00
36502;BME280;25393;46.108;3.390;2023-06-10T01:24:58;97433.63;;;18.92;100.00
36502;BME280;25393;46.108;3.390;2023-06-10T01:27:30;97431.84;;;18.98;100.00
36502;BME280;25393;46.108;3.390;2023-06-10T01:30:05;97430.47;;;18.95;100.00
36502;BME280;25393;46.108;3.390;2023-06-10T01:32:40;97433.50;;;18.99;100.00
36502;BME280;25393;46.108;3.390;2023-06-10T01:35:09;97429.88;;;18.93;100.00
36502;BME280;25393;46.108;3.390;2023-06-10T01:37:41;97416.09;;;18.90;100.00
36502;BME280;25393;46.108;3.390;2023-06-10T01:40:10;97416.56;;;18.75;100.00
36502;BME280;25393;46.108;3.390;2023-06-10T01:42:38;97433.63;;;18.81;100.00
36502;BME280;25393;46.108;3.390;2023-06-10T01:45:05;97435.03;;;18.72;100.00
36502;BME280;25393;46.108;3.390;2023-06-10T01:47:32;97433.06;;;18.56;100.00
36502;BME280;25393;46.108;3.390;2023-06-10T01:49:59;97437.66;;;18.37;100.00
36502;BME280;25393;46.108;3.390;2023-06-10T01:52:26;97431.53;;;18.36;100.00
36502;BME280;25393;46.108;3.390;2023-06-10T01:54:52;97418.66;;;18.27;100.00
36502;BME280;25393;46.108;3.390;2023-06-10T01:57:19;97443.53;;;18.45;100.00
36502;BME280;25393;46.108;3.390;2023-06-10T01:59:45;97438.88;;;18.53;100.00
36502;BME280;25393;46.108;3.390;2023-06-10T02:02:13;97425.78;;;18.44;100.00
36502;BME280;25393;46.108;3.390;2023-06-10T02:04:39;97426.72;;;18.50;100.00
36502;BME280;25393;46.108;3.390;2023-06-10T02:07:06;97443.09;;;18.60;100.00
36502;BME280;25393;46.108;3.390;2023-06-10T02:09:32;97444.13;;;18.59;100.00
36502;BME280;25393;46.108;3.390;2023-06-10T02:12:04;97430.38;;;18.56;100.00
36502;BME280;25393;46.108;3.390;2023-06-10T02:14:33;97441.81;;;18.63;100.00
36502;BME280;25393;46.108;3.390;2023-06-10T02:16:59;97437.25;;;18.63;100.00
36502;BME280;25393;46.108;3.390;2023-06-10T02:19:27;97425.00;;;18.56;100.00
36502;BME280;25393;46.108;3.390;2023-06-10T02:21:54;97427.69;;;18.56;100.00
36502;BME280;25393;46.108;3.390;2023-06-10T02:24:21;97445.53;;;18.62;100.00
36502;BME280;25393;46.108;3.390;2023-06-10T02:26:48;97442.06;;;18.61;100.00
36502;BME280;25393;46.108;3.390;2023-06-10T02:29:15;97434.44;;;18.58;100.00
36502;BME280;25393;46.108;3.390;2023-06-10T02:31:41;97441.56;;;18.53;100.00
36502;BME280;25393;46.108;3.390;2023-06-10T02:34:08;97455.34;;;18.56;100.00
36502;BME280;25393;46.108;3.390;2023-06-10T02:36:35;97451.00;;;18.55;100.00
36502;BME280;25393;46.108;3.390;2023-06-10T02:39:02;97453.69;;;18.55;100.00
36502;BME280;25393;46.108;3.390;2023-06-10T02:41:31;97442.47;;;18.46;100.00
36502;BME280;25393;46.108;3.390;2023-06-10T02:43:57;97447.50;;;18.43;100.00
36502;BME280;25393;46.108;3.390;2023-06-10T02:46:24;97439.09;;;18.39;100.00
36502;BME280;25393;46.108;3.390;2023-06-10T02:48:51;97441.53;;;18.41;100.00
36502;BME280;25393;46.108;3.390;2023-06-10T02:51:18;97442.25;;;18.36;100.00
36502;BME280;25393;46.108;3.390;2023-06-10T02:53:45;97467.44;;;18.47;100.00
36502;BME280;25393;46.108;3.390;2023-06-10T02:56:12;97438.38;;;18.32;100.00
36502;BME280;25393;46.108;3.390;2023-06-10T02:58:39;97446.19;;;18.34;100.00
36502;BME280;25393;46.108;3.390;2023-06-10T03:01:05;97450.28;;;18.36;100.00
36502;BME280;25393;46.108;3.390;2023-06-10T03:03:32;97454.84;;;18.36;100.00
36502;BME280;25393;46.108;3.390;2023-06-10T03:06:00;97444.78;;;18.31;100.00
36502;BME280;25393;46.108;3.390;2023-06-10T03:08:27;97471.28;;;18.39;100.00
36502;BME280;25393;46.108;3.390;2023-06-10T03:10:53;97475.59;;;18.40;100.00
36502;BME280;25393;46.108;3.390;2023-06-10T03:13:20;97457.53;;;18.36;100.00
36502;BME280;25393;46.108;3.390;2023-06-10T03:15:48;97473.50;;;18.42;100.00
36502;BME280;25393;46.108;3.390;2023-06-10T03:18:14;97458.91;;;18.38;100.00
36502;BME280;25393;46.108;3.390;2023-06-10T03:20:41;97454.03;;;18.35;100.00
36502;BME280;25393;46.108;3.390;2023-06-10T03:23:09;97473.59;;;18.47;100.00
36502;BME280;25393;46.108;3.390;2023-06-10T03:25:36;97459.75;;;18.39;100.00
36502;BME280;25393;46.108;3.390;2023-06-10T03:28:02;97464.53;;;18.48;100.00
36502;BME280;25393;46.108;3.390;2023-06-10T03:30:29;97475.88;;;18.51;100.00
36502;BME280;25393;46.108;3.390;2023-06-10T03:32:56;97449.81;;;18.39;100.00
36502;BME280;25393;46.108;3.390;2023-06-10T03:35:22;97470.56;;;18.44;100.00
36502;BME280;25393;46.108;3.390;2023-06-10T03:37:49;97458.09;;;18.38;100.00
36502;BME280;25393;46.108;3.390;2023-06-10T03:40:16;97471.28;;;18.39;100.00
36502;BME280;25393;46.108;3.390;2023-06-10T03:42:43;97471.28;;;18.39;100.00
36502;BME280;25393;46.108;3.390;2023-06-10T03:45:10;97459.59;;;18.34;100.00
36502;BME280;25393;46.108;3.390;2023-06-10T03:47:38;97472.91;;;18.40;100.00
36502;BME280;25393;46.108;3.390;2023-06-10T03:50:04;97477.84;;;18.43;100.00
36502;BME280;25393;46.108;3.390;2023-06-10T03:52:31;97471.97;;;18.35;100.00
36502;BME280;25393;46.108;3.390;2023-06-10T03:54:58;97464.03;;;18.28;100.00
36502;BME280;25393;46.108;3.390;2023-06-10T03:57:25;97473.47;;;18.31;100.00
36502;BME280;25393;46.108;3.390;2023-06-10T03:59:52;97470.56;;;18.21;100.00
36502;BME280;25393;46.108;3.390;2023-06-10T04:02:18;97472.56;;;18.25;100.00
36502;BME280;25393;46.108;3.390;2023-06-10T04:04:45;97476.38;;;18.18;100.00
36502;BME280;25393;46.108;3.390;2023-06-10T04:07:12;97477.78;;;18.20;100.00
36502;BME280;25393;46.108;3.390;2023-06-10T04:09:40;97477.19;;;18.30;100.00
36502;BME280;25393;46.108;3.390;2023-06-10T04:12:07;97457.50;;;18.24;100.00
36502;BME280;25393;46.108;3.390;2023-06-10T04:14:35;97475.94;;;18.32;100.00
36502;BME280;25393;46.108;3.390;2023-06-10T04:17:05;97482.91;;;18.33;100.00
36502;BME280;25393;46.108;3.390;2023-06-10T04:19:34;97475.94;;;18.44;100.00
36502;BME280;25393;46.108;3.390;2023-06-10T04:22:01;97471.75;;;18.48;100.00
36502;BME280;25393;46.108;3.390;2023-06-10T04:24:31;97477.84;;;18.43;100.00
36502;BME280;25393;46.108;3.390;2023-06-10T04:26:58;97481.50;;;18.61;100.00
36502;BME280;25393;46.108;3.390;2023-06-10T04:29:24;97488.94;;;18.59;100.00
36502;BME280;25393;46.108;3.390;2023-06-10T04:31:51;97468.34;;;18.41;100.00
36502;BME280;25393;46.108;3.390;2023-06-10T04:34:20;97481.00;;;18.52;100.00
36502;BME280;25393;46.108;3.390;2023-06-10T04:36:47;97459.28;;;18.42;100.00
36502;BME280;25393;46.108;3.390;2023-06-10T04:39:14;97486.25;;;18.59;100.00
36502;BME280;25393;46.108;3.390;2023-06-10T04:41:43;97491.03;;;18.68;100.00
36502;BME280;25393;46.108;3.390;2023-06-10T04:44:09;97477.16;;;18.60;100.00
36502;BME280;25393;46.108;3.390;2023-06-10T04:46:37;97503.06;;;18.66;100.00
36502;BME280;25393;46.108;3.390;2023-06-10T04:49:04;97493.97;;;18.67;100.00
36502;BME280;25393;46.108;3.390;2023-06-10T04:51:31;97481.81;;;18.53;100.00
36502;BME280;25393;46.108;3.390;2023-06-10T04:53:58;97482.88;;;18.63;100.00
36502;BME280;25393;46.108;3.390;2023-06-10T04:56:29;97497.47;;;18.56;100.00
36502;BME280;25393;46.108;3.390;2023-06-10T04:58:57;97494.50;;;18.45;100.00
36502;BME280;25393;46.108;3.390;2023-06-10T05:01:24;97491.25;;;18.43;100.00
36502;BME280;25393;46.108;3.390;2023-06-10T05:03:50;97483.41;;;18.42;100.00
36502;BME280;25393;46.108;3.390;2023-06-10T05:06:17;97478.66;;;18.56;100.00
36502;BME280;25393;46.108;3.390;2023-06-10T05:08:44;97491.38;;;18.72;100.00
36502;BME280;25393;46.108;3.390;2023-06-10T05:11:10;97488.13;;;18.81;100.00
36502;BME280;25393;46.108;3.390;2023-06-10T05:13:37;97494.19;;;18.77;100.00
36502;BME280;25393;46.108;3.390;2023-06-10T05:16:04;97498.63;;;18.94;100.00
36502;BME280;25393;46.108;3.390;2023-06-10T05:18:30;97472.81;;;18.93;100.00
36502;BME280;25393;46.108;3.390;2023-06-10T05:20:57;97496.97;;;18.93;100.00
36502;BME280;25393;46.108;3.390;2023-06-10T05:23:24;97497.59;;;18.95;100.00
36502;BME280;25393;46.108;3.390;2023-06-10T05:25:50;97496.50;;;19.08;100.00
36502;BME280;25393;46.108;3.390;2023-06-10T05:28:17;97491.97;;;19.09;100.00
36502;BME280;25393;46.108;3.390;2023-06-10T05:30:44;97503.13;;;19.29;100.00
36502;BME280;25393;46.108;3.390;2023-06-10T05:33:11;97510.50;;;19.33;100.00
36502;BME280;25393;46.108;3.390;2023-06-10T05:35:38;97499.75;;;19.45;100.00
36502;BME280;25393;46.108;3.390;2023-06-10T05:38:04;97506.53;;;19.48;100.00
36502;BME280;25393;46.108;3.390;2023-06-10T05:40:31;97486.44;;;19.38;100.00
36502;BME280;25393;46.108;3.390;2023-06-10T05:42:57;97495.81;;;19.64;100.00
36502;BME280;25393;46.108;3.390;2023-06-10T05:45:24;97498.00;;;19.79;100.00
36502;BME280;25393;46.108;3.390;2023-06-10T05:47:51;97503.81;;;19.87;100.00
36502;BME280;25393;46.108;3.390;2023-06-10T05:50:18;97515.81;;;19.97;100.00
36502;BME280;25393;46.108;3.390;2023-06-10T05:52:44;97511.91;;;20.04;100.00
36502;BME280;25393;46.108;3.390;2023-06-10T05:55:11;97509.94;;;20.00;100.00
36502;BME280;25393;46.108;3.390;2023-06-10T05:57:38;97520.69;;;20.00;100.00
36502;BME280;25393;46.108;3.390;2023-06-10T06:00:05;97521.56;;;19.88;100.00
36502;BME280;25393;46.108;3.390;2023-06-10T06:02:32;97518.47;;;19.80;100.00
36502;BME280;25393;46.108;3.390;2023-06-10T06:04:59;97530.25;;;19.79;100.00
36502;BME280;25393;46.108;3.390;2023-06-10T06:07:26;97517.66;;;19.68;100.00
36502;BME280;25393;46.108;3.390;2023-06-10T06:09:52;97529.59;;;19.72;100.00
36502;BME280;25393;46.108;3.390;2023-06-10T06:12:19;97535.44;;;19.69;100.00
36502;BME280;25393;46.108;3.390;2023-06-10T06:14:46;97536.59;;;19.73;100.00
36502;BME280;25393;46.108;3.390;2023-06-10T06:17:13;97532.06;;;19.62;100.00
36502;BME280;25393;46.108;3.390;2023-06-10T06:19:40;97533.03;;;19.56;100.00
36502;BME280;25393;46.108;3.390;2023-06-10T06:22:06;97536.59;;;19.73;100.00
36502;BME280;25393;46.108;3.390;2023-06-10T06:24:33;97536.59;;;19.73;100.00
36502;BME280;25393;46.108;3.390;2023-06-10T06:27:00;97525.72;;;19.68;100.00
36502;BME280;25393;46.108;3.390;2023-06-10T06:29:27;97542.19;;;19.71;100.00
36502;BME280;25393;46.108;3.390;2023-06-10T06:31:56;97549.56;;;19.76;100.00
36502;BME280;25393;46.108;3.390;2023-06-10T06:34:23;97556.09;;;19.80;100.00
36502;BME280;25393;46.108;3.390;2023-06-10T06:36:50;97551.63;;;19.85;100.00
36502;BME280;25393;46.108;3.390;2023-06-10T06:39:16;97545.09;;;19.81;100.00
36502;BME280;25393;46.108;3.390;2023-06-10T06:41:43;97524.53;;;19.75;100.00
36502;BME280;25393;46.108;3.390;2023-06-10T06:44:10;97550.97;;;19.67;100.00
36502;BME280;25393;46.108;3.390;2023-06-10T06:46:36;97551.50;;;19.52;100.00
36502;BME280;25393;46.108;3.390;2023-06-10T06:49:03;97551.50;;;19.52;100.00
36502;BME280;25393;46.108;3.390;2023-06-10T06:51:30;97539.25;;;19.44;100.00
36502;BME280;25393;46.108;3.390;2023-06-10T06:53:56;97549.84;;;19.51;100.00
36502;BME280;25393;46.108;3.390;2023-06-10T06:56:25;97540.28;;;19.43;100.00
36502;BME280;25393;46.108;3.390;2023-06-10T06:58:53;97543.31;;;19.47;100.00
36502;BME280;25393;46.108;3.390;2023-06-10T07:01:23;97546.69;;;19.66;100.00
36502;BME280;25393;46.108;3.390;2023-06-10T07:03:50;97536.75;;;19.55;100.00
36502;BME280;25393;46.108;3.390;2023-06-10T07:06:17;97551.78;;;19.79;100.00
36502;BME280;25393;46.108;3.390;2023-06-10T07:08:45;97549.66;;;19.81;100.00
36502;BME280;25393;46.108;3.390;2023-06-10T07:11:12;97546.84;;;19.87;100.00
36502;BME280;25393;46.108;3.390;2023-06-10T07:13:40;97552.25;;;20.04;100.00
36502;BME280;25393;46.108;3.390;2023-06-10T07:16:07;97555.13;;;20.14;100.00
36502;BME280;25393;46.108;3.390;2023-06-10T07:18:34;97561.09;;;20.16;100.00
36502;BME280;25393;46.108;3.390;2023-06-10T07:21:01;97556.38;;;20.23;100.00
36502;BME280;25393;46.108;3.390;2023-06-10T07:23:28;97562.16;;;20.15;100.00
36502;BME280;25393;46.108;3.390;2023-06-10T07:25:55;97561.41;;;19.91;100.00
36502;BME280;25393;46.108;3.390;2023-06-10T07:28:22;97556.78;;;19.87;100.00
36502;BME280;25393;46.108;3.390;2023-06-10T07:30:49;97566.22;;;19.89;100.00
36502;BME280;25393;46.108;3.390;2023-06-10T07:33:16;97558.13;;;20.01;100.00
36502;BME280;25393;46.108;3.390;2023-06-10T07:35:42;97559.97;;;20.12;100.00
36502;BME280;25393;46.108;3.390;2023-06-10T07:38:09;97564.13;;;20.20;100.00
36502;BME280;25393;46.108;3.390;2023-06-10T07:40:36;97568.16;;;20.34;100.00
36502;BME280;25393;46.108;3.390;2023-06-10T07:43:03;97570.66;;;20.52;100.00
36502;BME280;25393;46.108;3.390;2023-06-10T07:45:30;97565.44;;;20.46;100.00
36502;BME280;25393;46.108;3.390;2023-06-10T07:47:57;97569.97;;;20.45;100.00
36502;BME280;25393;46.108;3.390;2023-06-10T07:50:24;97564.06;;;20.60;100.00
36502;BME280;25393;46.108;3.390;2023-06-10T07:52:51;97574.44;;;20.84;100.00
36502;BME280;25393;46.108;3.390;2023-06-10T07:55:17;97565.47;;;20.79;100.00
36502;BME280;25393;46.108;3.390;2023-06-10T07:57:45;97564.38;;;20.80;100.00
36502;BME280;25393;46.108;3.390;2023-06-10T08:00:12;97562.84;;;20.84;100.00
36502;BME280;25393;46.108;3.390;2023-06-10T08:02:40;97575.06;;;20.91;99.18
36502;BME280;25393;46.108;3.390;2023-06-10T08:05:08;97577.69;;;20.70;99.73
36502;BME280;25393;46.108;3.390;2023-06-10T08:07:36;97583.16;;;20.75;100.00
36502;BME280;25393;46.108;3.390;2023-06-10T08:10:03;97575.25;;;20.85;100.00
36502;BME280;25393;46.108;3.390;2023-06-10T08:12:33;97569.94;;;21.07;100.00
36502;BME280;25393;46.108;3.390;2023-06-10T08:15:02;97575.09;;;21.25;100.00
36502;BME280;25393;46.108;3.390;2023-06-10T08:17:30;97577.28;;;21.28;100.00
36502;BME280;25393;46.108;3.390;2023-06-10T08:19:57;97584.69;;;21.37;100.00
36502;BME280;25393;46.108;3.390;2023-06-10T08:22:25;97571.03;;;21.44;100.00
36502;BME280;25393;46.108;3.390;2023-06-10T08:24:52;97569.41;;;21.65;99.40
36502;BME280;25393;46.108;3.390;2023-06-10T08:27:20;97576.88;;;21.79;94.74
36502;BME280;25393;46.108;3.390;2023-06-10T08:29:46;97590.28;;;21.74;94.78
36502;BME280;25393;46.108;3.390;2023-06-10T08:32:13;97583.84;;;21.75;96.74
36502;BME280;25393;46.108;3.390;2023-06-10T08:34:40;97588.06;;;21.88;97.66
36502;BME280;25393;46.108;3.390;2023-06-10T08:37:08;97589.16;;;22.09;97.98
36502;BME280;25393;46.108;3.390;2023-06-10T08:39:35;97591.84;;;22.35;95.47
36502;BME280;25393;46.108;3.390;2023-06-10T08:42:31;97593.19;;;22.60;94.70
36502;BME280;25393;46.108;3.390;2023-06-10T08:44:55;97591.34;;;22.92;90.58
36502;BME280;25393;46.108;3.390;2023-06-10T08:47:24;97588.72;;;23.02;89.16
36502;BME280;25393;46.108;3.390;2023-06-10T08:49:52;97580.00;;;22.95;87.38
36502;BME280;25393;46.108;3.390;2023-06-10T08:52:20;97586.28;;;23.01;88.15
36502;BME280;25393;46.108;3.390;2023-06-10T08:55:12;97584.03;;;23.29;86.42
36502;BME280;25393;46.108;3.390;2023-06-10T08:57:42;97587.50;;;23.57;83.81
36502;BME280;25393;46.108;3.390;2023-06-10T09:00:13;97591.06;;;23.67;82.62
36502;BME280;25393;46.108;3.390;2023-06-10T09:02:40;97592.19;;;23.76;81.33
36502;BME280;25393;46.108;3.390;2023-06-10T09:05:08;97594.09;;;23.86;80.90
36502;BME280;25393;46.108;3.390;2023-06-10T09:07:36;97578.72;;;23.92;81.78
36502;BME280;25393;46.108;3.390;2023-06-10T09:10:04;97587.97;;;24.06;82.09
36502;BME280;25393;46.108;3.390;2023-06-10T09:12:34;97593.72;;;24.14;79.12
36502;BME280;25393;46.108;3.390;2023-06-10T09:15:02;97583.16;;;24.13;77.18
36502;BME280;25393;46.108;3.390;2023-06-10T09:17:29;97587.25;;;24.25;79.76
36502;BME280;25393;46.108;3.390;2023-06-10T09:19:56;97582.41;;;24.27;76.30
36502;BME280;25393;46.108;3.390;2023-06-10T09:22:24;97581.31;;;24.33;76.62
36502;BME280;25393;46.108;3.390;2023-06-10T09:25:07;97576.44;;;24.35;78.74
36502;BME280;25393;46.108;3.390;2023-06-10T09:27:50;97584.31;;;24.37;79.55
36502;BME280;25393;46.108;3.390;2023-06-10T09:30:24;97592.97;;;24.44;79.70
36502;BME280;25393;46.108;3.390;2023-06-10T09:32:57;97593.22;;;24.32;78.05
36502;BME280;25393;46.108;3.390;2023-06-10T09:35:25;97587.81;;;24.27;78.96
36502;BME280;25393;46.108;3.390;2023-06-10T09:37:57;97587.66;;;23.92;77.05
36502;BME280;25393;46.108;3.390;2023-06-10T09:40:24;97593.13;;;24.12;74.95
36502;BME280;25393;46.108;3.390;2023-06-10T09:42:59;97596.38;;;24.09;74.17
36502;BME280;25393;46.108;3.390;2023-06-10T09:45:32;97592.66;;;24.20;73.98
36502;BME280;25393;46.108;3.390;2023-06-10T09:48:00;97599.19;;;24.29;80.89
36502;BME280;25393;46.108;3.390;2023-06-10T09:50:27;97593.22;;;24.27;83.18
36502;BME280;25393;46.108;3.390;2023-06-10T09:52:59;97578.09;;;24.42;81.07
36502;BME280;25393;46.108;3.390;2023-06-10T09:55:26;97599.19;;;24.40;79.27
36502;BME280;25393;46.108;3.390;2023-06-10T09:57:54;97591.38;;;24.63;82.46
36502;BME280;25393;46.108;3.390;2023-06-10T10:00:22;97585.72;;;25.05;82.10
36502;BME280;25393;46.108;3.390;2023-06-10T10:02:51;97579.19;;;25.52;79.89
36502;BME280;25393;46.108;3.390;2023-06-10T10:05:19;97578.19;;;26.02;76.18
36502;BME280;25393;46.108;3.390;2023-06-10T10:07:47;97583.44;;;25.83;72.18
36502;BME280;25393;46.108;3.390;2023-06-10T10:10:19;97582.72;;;25.42;69.91
36502;BME280;25393;46.108;3.390;2023-06-10T10:12:47;97571.91;;;25.17;73.33
36502;BME280;25393;46.108;3.390;2023-06-10T10:15:16;97587.38;;;25.06;70.19
36502;BME280;25393;46.108;3.390;2023-06-10T10:17:52;97591.72;;;25.07;75.97
36502;BME280;25393;46.108;3.390;2023-06-10T10:20:21;97580.81;;;25.38;74.15
36502;BME280;25393;46.108;3.390;2023-06-10T10:22:52;97578.91;;;25.48;73.97
36502;BME280;25393;46.108;3.390;2023-06-10T10:25:32;97567.53;;;25.61;75.91
